Orbital elements of FENGYUN 1C DEB
| Launched | 9 May 1999 |
| Flight ended | – |
| Launch site | Taiyuan Space Center, PRC |
| Owner | People's Republic of China |
| NORAD ID | 37474 |
| Date fetched |
Epoch osculation |
Inc. [°] |
Ecc. | RA asc node [hr] |
Arg Peri. [°] |
Mean anom [°] |
Mean motion [rev/day] |
Abs. mag |
| Date fetched |
Epoch osculation |
Inc. [°] |
Ecc. | RA asc node [hr] |
Arg Peri. [°] |
Mean anom [°] |
Mean motion [rev/day] |
Abs. mag |
| 2026 May 05 17:57 | 2026 May 01 21:45:31 | 99.1557 | 0.01271 | 23.3919 | 59.1005 | 302.2627 | 14.78101 | – |
| 2026 May 04 17:57 | 2026 Apr 27 08:54:13 | 99.1551 | 0.01269 | 23.0484 | 73.0127 | 302.2627 | 14.78101 | – |
| 2026 May 03 17:57 | 2026 Apr 27 08:54:13 | 99.1551 | 0.01269 | 23.0484 | 73.0127 | 302.2627 | 14.78101 | – |
| 2026 May 02 17:57 | 2026 Apr 27 08:54:13 | 99.1551 | 0.01269 | 23.0484 | 73.0127 | 302.2627 | 14.78101 | – |
| 2026 May 01 17:56 | 2026 Apr 27 08:54:13 | 99.1551 | 0.01269 | 23.0484 | 73.0127 | 302.2627 | 14.78101 | – |
| 2026 Apr 30 17:56 | 2026 Apr 27 08:54:13 | 99.1551 | 0.01269 | 23.0484 | 73.0127 | 302.2627 | 14.78101 | – |
| 2026 Apr 29 17:57 | 2026 Apr 22 21:39:59 | 99.1557 | 0.01273 | 22.7102 | 86.8509 | 302.2627 | 14.78101 | – |
| 2026 Apr 28 17:56 | 2026 Apr 22 21:39:59 | 99.1557 | 0.01273 | 22.7102 | 86.8509 | 302.2627 | 14.78101 | – |
| 2026 Apr 27 17:58 | 2026 Apr 22 21:39:59 | 99.1557 | 0.01273 | 22.7102 | 86.8509 | 302.2627 | 14.78101 | – |
| 2026 Apr 26 17:58 | 2026 Apr 22 21:39:59 | 99.1557 | 0.01273 | 22.7102 | 86.8509 | 302.2627 | 14.78101 | – |
| 2026 Apr 25 17:58 | 2026 Apr 22 21:39:59 | 99.1557 | 0.01273 | 22.7102 | 86.8509 | 302.2627 | 14.78101 | – |
| 2026 Apr 24 17:59 | 2026 Apr 22 21:39:59 | 99.1557 | 0.01273 | 22.7102 | 86.8509 | 302.2627 | 14.78101 | – |
| 2026 Apr 23 17:57 | 2026 Apr 18 08:47:56 | 99.1558 | 0.01273 | 22.3669 | 100.8865 | 302.2627 | 14.78101 | – |
| 2026 Apr 22 17:57 | 2026 Apr 18 08:47:56 | 99.1558 | 0.01273 | 22.3669 | 100.8865 | 302.2627 | 14.78101 | – |
| 2026 Apr 21 17:57 | 2026 Apr 18 08:47:56 | 99.1558 | 0.01273 | 22.3669 | 100.8865 | 302.2627 | 14.78101 | – |
| 2026 Apr 20 17:57 | 2026 Apr 18 08:47:56 | 99.1558 | 0.01273 | 22.3669 | 100.8865 | 302.2627 | 14.78101 | – |
| 2026 Apr 19 17:58 | 2026 Apr 18 08:47:56 | 99.1558 | 0.01273 | 22.3669 | 100.8865 | 302.2627 | 14.78101 | – |
| 2026 Apr 18 17:56 | 2026 Apr 09 08:40:28 | 99.1578 | 0.01272 | 21.6852 | 128.8039 | 302.2627 | 14.78101 | – |
| 2026 Apr 16 17:57 | 2026 Apr 09 08:40:28 | 99.1578 | 0.01272 | 21.6852 | 128.8039 | 302.2627 | 14.78101 | – |
| 2026 Apr 14 17:57 | 2026 Apr 09 08:40:28 | 99.1578 | 0.01272 | 21.6852 | 128.8039 | 302.2627 | 14.78101 | – |
| 2026 Apr 13 17:57 | 2026 Apr 09 08:40:28 | 99.1578 | 0.01272 | 21.6852 | 128.8039 | 302.2627 | 14.78101 | – |
| 2026 Apr 12 17:57 | 2026 Apr 08 08:17:53 | 99.1578 | 0.01271 | 21.6084 | 131.9620 | 302.2627 | 14.78101 | – |
| 2026 Apr 11 17:57 | 2026 Apr 08 08:17:53 | 99.1578 | 0.01271 | 21.6084 | 131.9620 | 302.2627 | 14.78101 | – |
| 2026 Apr 10 17:58 | 2026 Apr 08 08:17:53 | 99.1578 | 0.01271 | 21.6084 | 131.9620 | 302.2627 | 14.78101 | – |
| 2026 Apr 09 18:01 | 2026 Apr 08 08:17:53 | 99.1578 | 0.01271 | 21.6084 | 131.9620 | 302.2627 | 14.78101 | – |
| 2026 Apr 08 17:57 | 2026 Apr 08 08:17:53 | 99.1578 | 0.01271 | 21.6084 | 131.9620 | 302.2627 | 14.78101 | – |